sensor_id;sensor_type;location;lat;lon;timestamp;P1;durP1;ratioP1;P2;durP2;ratioP2
19673;SDS011;9986;50.610;7.230;2022-08-19T00:02:08;7.40;;;6.67;;
19673;SDS011;9986;50.610;7.230;2022-08-19T00:04:48;6.30;;;5.80;;
19673;SDS011;9986;50.610;7.230;2022-08-19T00:07:26;8.40;;;6.83;;
19673;SDS011;9986;50.610;7.230;2022-08-19T00:10:04;6.70;;;6.10;;
19673;SDS011;9986;50.610;7.230;2022-08-19T00:12:46;6.60;;;6.00;;
19673;SDS011;9986;50.610;7.230;2022-08-19T00:15:18;7.27;;;6.57;;
19673;SDS011;9986;50.610;7.230;2022-08-19T00:17:56;6.90;;;6.07;;
19673;SDS011;9986;50.610;7.230;2022-08-19T00:23:09;8.67;;;7.73;;
19673;SDS011;9986;50.610;7.230;2022-08-19T00:28:16;8.67;;;7.93;;
19673;SDS011;9986;50.610;7.230;2022-08-19T00:33:31;8.10;;;7.40;;
19673;SDS011;9986;50.610;7.230;2022-08-19T00:36:09;7.90;;;7.20;;
19673;SDS011;9986;50.610;7.230;2022-08-19T00:38:47;7.97;;;7.20;;
19673;SDS011;9986;50.610;7.230;2022-08-19T00:41:24;7.00;;;6.30;;
19673;SDS011;9986;50.610;7.230;2022-08-19T00:44:03;7.17;;;6.50;;
19673;SDS011;9986;50.610;7.230;2022-08-19T00:46:42;7.23;;;6.33;;
19673;SDS011;9986;50.610;7.230;2022-08-19T00:49:21;6.77;;;6.17;;
19673;SDS011;9986;50.610;7.230;2022-08-19T00:52:07;6.77;;;6.17;;
19673;SDS011;9986;50.610;7.230;2022-08-19T00:57:17;7.47;;;6.77;;
19673;SDS011;9986;50.610;7.230;2022-08-19T00:59:55;9.93;;;7.60;;
19673;SDS011;9986;50.610;7.230;2022-08-19T01:05:06;8.37;;;7.57;;
19673;SDS011;9986;50.610;7.230;2022-08-19T01:12:52;8.87;;;7.97;;
19673;SDS011;9986;50.610;7.230;2022-08-19T01:15:31;9.33;;;8.43;;
19673;SDS011;9986;50.610;7.230;2022-08-19T01:20:41;9.30;;;8.40;;
19673;SDS011;9986;50.610;7.230;2022-08-19T01:23:19;8.27;;;7.47;;
19673;SDS011;9986;50.610;7.230;2022-08-19T01:25:57;7.83;;;7.10;;
19673;SDS011;9986;50.610;7.230;2022-08-19T01:28:35;7.40;;;6.67;;
19673;SDS011;9986;50.610;7.230;2022-08-19T01:31:14;7.53;;;6.73;;
19673;SDS011;9986;50.610;7.230;2022-08-19T01:33:53;8.03;;;7.27;;
19673;SDS011;9986;50.610;7.230;2022-08-19T01:36:32;7.57;;;6.77;;
19673;SDS011;9986;50.610;7.230;2022-08-19T01:41:46;7.70;;;7.00;;
19673;SDS011;9986;50.610;7.230;2022-08-19T01:44:24;9.10;;;7.97;;
19673;SDS011;9986;50.610;7.230;2022-08-19T01:49:32;8.70;;;7.70;;
19673;SDS011;9986;50.610;7.230;2022-08-19T01:52:09;8.13;;;7.33;;
19673;SDS011;9986;50.610;7.230;2022-08-19T01:57:16;8.57;;;7.77;;
19673;SDS011;9986;50.610;7.230;2022-08-19T01:59:54;7.90;;;7.10;;
19673;SDS011;9986;50.610;7.230;2022-08-19T02:02:32;7.77;;;7.07;;
19673;SDS011;9986;50.610;7.230;2022-08-19T02:07:52;7.37;;;6.73;;
19673;SDS011;9986;50.610;7.230;2022-08-19T02:10:38;7.10;;;6.50;;
19673;SDS011;9986;50.610;7.230;2022-08-19T02:13:20;9.17;;;7.43;;
19673;SDS011;9986;50.610;7.230;2022-08-19T02:15:57;7.60;;;6.87;;
19673;SDS011;9986;50.610;7.230;2022-08-19T02:18:35;7.17;;;6.57;;
19673;SDS011;9986;50.610;7.230;2022-08-19T02:23:42;8.47;;;7.67;;
19673;SDS011;9986;50.610;7.230;2022-08-19T02:26:20;8.37;;;7.20;;
19673;SDS011;9986;50.610;7.230;2022-08-19T02:28:58;7.63;;;6.93;;
19673;SDS011;9986;50.610;7.230;2022-08-19T02:31:35;7.23;;;6.53;;
19673;SDS011;9986;50.610;7.230;2022-08-19T02:34:14;7.97;;;7.27;;
19673;SDS011;9986;50.610;7.230;2022-08-19T02:37:00;8.17;;;7.37;;
19673;SDS011;9986;50.610;7.230;2022-08-19T02:39:38;9.03;;;8.13;;
19673;SDS011;9986;50.610;7.230;2022-08-19T02:42:16;8.83;;;8.03;;
19673;SDS011;9986;50.610;7.230;2022-08-19T02:44:54;8.67;;;7.70;;
19673;SDS011;9986;50.610;7.230;2022-08-19T02:47:38;8.87;;;8.03;;
19673;SDS011;9986;50.610;7.230;2022-08-19T02:52:54;8.53;;;7.73;;
19673;SDS011;9986;50.610;7.230;2022-08-19T02:55:32;7.77;;;7.07;;
19673;SDS011;9986;50.610;7.230;2022-08-19T02:58:16;8.10;;;7.40;;
19673;SDS011;9986;50.610;7.230;2022-08-19T03:03:24;8.67;;;7.87;;
19673;SDS011;9986;50.610;7.230;2022-08-19T03:06:07;8.63;;;7.77;;
19673;SDS011;9986;50.610;7.230;2022-08-19T03:08:46;8.17;;;7.47;;
19673;SDS011;9986;50.610;7.230;2022-08-19T03:13:59;10.33;;;7.70;;
19673;SDS011;9986;50.610;7.230;2022-08-19T03:16:41;8.80;;;7.90;;
19673;SDS011;9986;50.610;7.230;2022-08-19T03:19:19;9.93;;;8.93;;
19673;SDS011;9986;50.610;7.230;2022-08-19T03:21:58;9.60;;;8.70;;
19673;SDS011;9986;50.610;7.230;2022-08-19T03:24:36;8.80;;;7.90;;
19673;SDS011;9986;50.610;7.230;2022-08-19T03:27:17;9.03;;;8.23;;
19673;SDS011;9986;50.610;7.230;2022-08-19T03:32:30;10.53;;;7.80;;
19673;SDS011;9986;50.610;7.230;2022-08-19T03:35:08;9.13;;;8.20;;
19673;SDS011;9986;50.610;7.230;2022-08-19T03:40:15;9.07;;;8.17;;
19673;SDS011;9986;50.610;7.230;2022-08-19T03:42:59;9.13;;;8.20;;
19673;SDS011;9986;50.610;7.230;2022-08-19T03:45:37;9.20;;;8.37;;
19673;SDS011;9986;50.610;7.230;2022-08-19T03:48:15;9.87;;;8.87;;
19673;SDS011;9986;50.610;7.230;2022-08-19T03:50:53;11.37;;;9.83;;
19673;SDS011;9986;50.610;7.230;2022-08-19T03:56:03;10.50;;;9.40;;
19673;SDS011;9986;50.610;7.230;2022-08-19T03:58:41;9.13;;;8.20;;
19673;SDS011;9986;50.610;7.230;2022-08-19T04:04:06;9.70;;;8.70;;
19673;SDS011;9986;50.610;7.230;2022-08-19T04:06:44;10.13;;;9.13;;
19673;SDS011;9986;50.610;7.230;2022-08-19T04:11:52;9.13;;;8.30;;
19673;SDS011;9986;50.610;7.230;2022-08-19T04:14:30;22.17;;;19.00;;
19673;SDS011;9986;50.610;7.230;2022-08-19T04:17:08;16.43;;;13.17;;
19673;SDS011;9986;50.610;7.230;2022-08-19T04:19:46;11.80;;;9.90;;
19673;SDS011;9986;50.610;7.230;2022-08-19T04:22:23;11.53;;;9.50;;
19673;SDS011;9986;50.610;7.230;2022-08-19T04:25:01;10.33;;;9.30;;
19673;SDS011;9986;50.610;7.230;2022-08-19T04:30:10;9.33;;;8.33;;
19673;SDS011;9986;50.610;7.230;2022-08-19T04:32:49;17.90;;;15.97;;
19673;SDS011;9986;50.610;7.230;2022-08-19T04:37:55;10.63;;;9.63;;
19673;SDS011;9986;50.610;7.230;2022-08-19T04:43:10;10.03;;;8.77;;
19673;SDS011;9986;50.610;7.230;2022-08-19T04:45:48;8.63;;;7.93;;
19673;SDS011;9986;50.610;7.230;2022-08-19T04:48:26;10.10;;;9.07;;
19673;SDS011;9986;50.610;7.230;2022-08-19T04:51:05;11.63;;;10.43;;
19673;SDS011;9986;50.610;7.230;2022-08-19T04:56:19;11.67;;;8.90;;
19673;SDS011;9986;50.610;7.230;2022-08-19T04:58:58;11.63;;;10.43;;
19673;SDS011;9986;50.610;7.230;2022-08-19T05:01:37;10.27;;;9.27;;
19673;SDS011;9986;50.610;7.230;2022-08-19T05:04:14;10.60;;;9.50;;
19673;SDS011;9986;50.610;7.230;2022-08-19T05:06:52;10.43;;;9.40;;
19673;SDS011;9986;50.610;7.230;2022-08-19T05:09:30;10.77;;;9.37;;
19673;SDS011;9986;50.610;7.230;2022-08-19T05:12:08;14.77;;;12.87;;
19673;SDS011;9986;50.610;7.230;2022-08-19T05:14:46;13.10;;;11.47;;
19673;SDS011;9986;50.610;7.230;2022-08-19T05:17:24;10.17;;;9.03;;
19673;SDS011;9986;50.610;7.230;2022-08-19T05:20:02;14.87;;;9.87;;
19673;SDS011;9986;50.610;7.230;2022-08-19T05:22:44;10.73;;;9.63;;
19673;SDS011;9986;50.610;7.230;2022-08-19T05:25:24;11.40;;;9.50;;
19673;SDS011;9986;50.610;7.230;2022-08-19T05:28:02;10.73;;;9.50;;
19673;SDS011;9986;50.610;7.230;2022-08-19T05:30:42;10.13;;;9.13;;
19673;SDS011;9986;50.610;7.230;2022-08-19T05:33:20;10.07;;;9.17;;
19673;SDS011;9986;50.610;7.230;2022-08-19T05:36:01;10.30;;;9.30;;
19673;SDS011;9986;50.610;7.230;2022-08-19T05:41:14;10.17;;;9.27;;
19673;SDS011;9986;50.610;7.230;2022-08-19T05:46:22;10.53;;;9.53;;
19673;SDS011;9986;50.610;7.230;2022-08-19T05:49:06;10.57;;;9.47;;
19673;SDS011;9986;50.610;7.230;2022-08-19T05:51:50;8.80;;;8.00;;
19673;SDS011;9986;50.610;7.230;2022-08-19T05:54:28;10.90;;;9.80;;
19673;SDS011;9986;50.610;7.230;2022-08-19T05:57:12;16.10;;;12.83;;
19673;SDS011;9986;50.610;7.230;2022-08-19T05:59:50;14.13;;;12.73;;
19673;SDS011;9986;50.610;7.230;2022-08-19T06:02:37;15.63;;;14.07;;
19673;SDS011;9986;50.610;7.230;2022-08-19T06:05:15;20.33;;;18.13;;
19673;SDS011;9986;50.610;7.230;2022-08-19T06:07:53;20.47;;;18.17;;
19673;SDS011;9986;50.610;7.230;2022-08-19T06:10:31;18.83;;;16.57;;
19673;SDS011;9986;50.610;7.230;2022-08-19T06:13:08;20.33;;;18.13;;
19673;SDS011;9986;50.610;7.230;2022-08-19T06:15:46;18.77;;;16.77;;
19673;SDS011;9986;50.610;7.230;2022-08-19T06:20:54;21.87;;;19.47;;
19673;SDS011;9986;50.610;7.230;2022-08-19T06:23:32;21.37;;;18.37;;
19673;SDS011;9986;50.610;7.230;2022-08-19T06:31:29;19.33;;;17.27;;
19673;SDS011;9986;50.610;7.230;2022-08-19T06:34:09;19.73;;;17.67;;
19673;SDS011;9986;50.610;7.230;2022-08-19T06:36:47;23.13;;;19.80;;
19673;SDS011;9986;50.610;7.230;2022-08-19T06:39:32;22.30;;;19.37;;
19673;SDS011;9986;50.610;7.230;2022-08-19T06:42:11;23.10;;;19.67;;
19673;SDS011;9986;50.610;7.230;2022-08-19T06:44:51;21.03;;;18.77;;
19673;SDS011;9986;50.610;7.230;2022-08-19T06:47:29;22.30;;;19.90;;
19673;SDS011;9986;50.610;7.230;2022-08-19T06:50:13;22.70;;;18.97;;
19673;SDS011;9986;50.610;7.230;2022-08-19T06:52:52;25.27;;;18.40;;
19673;SDS011;9986;50.610;7.230;2022-08-19T06:55:36;25.03;;;19.97;;
19673;SDS011;9986;50.610;7.230;2022-08-19T06:58:14;24.27;;;19.37;;
19673;SDS011;9986;50.610;7.230;2022-08-19T07:03:32;26.67;;;20.20;;
19673;SDS011;9986;50.610;7.230;2022-08-19T07:06:14;22.20;;;19.90;;
19673;SDS011;9986;50.610;7.230;2022-08-19T07:11:30;30.00;;;22.43;;
19673;SDS011;9986;50.610;7.230;2022-08-19T07:14:08;28.13;;;22.83;;
19673;SDS011;9986;50.610;7.230;2022-08-19T07:19:34;29.77;;;22.93;;
19673;SDS011;9986;50.610;7.230;2022-08-19T07:22:15;26.67;;;21.67;;
19673;SDS011;9986;50.610;7.230;2022-08-19T07:24:53;27.90;;;22.23;;
19673;SDS011;9986;50.610;7.230;2022-08-19T07:32:47;27.77;;;21.90;;
19673;SDS011;9986;50.610;7.230;2022-08-19T07:38:03;24.63;;;21.07;;
19673;SDS011;9986;50.610;7.230;2022-08-19T07:40:47;25.70;;;20.97;;
19673;SDS011;9986;50.610;7.230;2022-08-19T07:43:31;24.23;;;19.37;;
19673;SDS011;9986;50.610;7.230;2022-08-19T07:46:12;25.17;;;20.63;;
19673;SDS011;9986;50.610;7.230;2022-08-19T07:53:59;24.80;;;20.03;;
19673;SDS011;9986;50.610;7.230;2022-08-19T07:59:06;25.83;;;20.23;;
19673;SDS011;9986;50.610;7.230;2022-08-19T08:01:44;23.03;;;18.47;;
19673;SDS011;9986;50.610;7.230;2022-08-19T08:06:53;18.47;;;16.43;;
19673;SDS011;9986;50.610;7.230;2022-08-19T08:09:32;21.13;;;17.10;;
19673;SDS011;9986;50.610;7.230;2022-08-19T08:12:17;21.63;;;17.63;;
19673;SDS011;9986;50.610;7.230;2022-08-19T08:14:56;20.07;;;15.70;;
19673;SDS011;9986;50.610;7.230;2022-08-19T08:17:34;17.30;;;14.70;;
19673;SDS011;9986;50.610;7.230;2022-08-19T08:22:48;17.87;;;13.50;;
19673;SDS011;9986;50.610;7.230;2022-08-19T08:25:29;17.43;;;13.03;;
19673;SDS011;9986;50.610;7.230;2022-08-19T08:30:44;13.40;;;12.00;;
19673;SDS011;9986;50.610;7.230;2022-08-19T08:35:53;16.50;;;13.20;;
19673;SDS011;9986;50.610;7.230;2022-08-19T08:38:31;19.00;;;15.43;;
19673;SDS011;9986;50.610;7.230;2022-08-19T08:41:18;19.93;;;14.53;;
19673;SDS011;9986;50.610;7.230;2022-08-19T08:46:34;16.00;;;13.70;;
19673;SDS011;9986;50.610;7.230;2022-08-19T08:51:52;14.93;;;13.43;;
19673;SDS011;9986;50.610;7.230;2022-08-19T08:57:15;15.63;;;12.47;;
19673;SDS011;9986;50.610;7.230;2022-08-19T09:02:37;15.40;;;13.00;;
19673;SDS011;9986;50.610;7.230;2022-08-19T09:07:46;17.27;;;15.10;;
19673;SDS011;9986;50.610;7.230;2022-08-19T09:10:27;14.57;;;12.27;;
19673;SDS011;9986;50.610;7.230;2022-08-19T09:13:18;14.47;;;12.60;;
19673;SDS011;9986;50.610;7.230;2022-08-19T09:15:56;12.93;;;11.33;;
19673;SDS011;9986;50.610;7.230;2022-08-19T09:18:42;14.90;;;13.00;;
19673;SDS011;9986;50.610;7.230;2022-08-19T09:21:20;12.00;;;10.63;;
19673;SDS011;9986;50.610;7.230;2022-08-19T09:26:29;15.93;;;11.67;;
19673;SDS011;9986;50.610;7.230;2022-08-19T09:29:06;12.70;;;10.43;;
19673;SDS011;9986;50.610;7.230;2022-08-19T09:34:22;12.77;;;11.40;;
19673;SDS011;9986;50.610;7.230;2022-08-19T09:37:03;14.60;;;12.37;;
19673;SDS011;9986;50.610;7.230;2022-08-19T09:39:41;12.57;;;11.30;;
19673;SDS011;9986;50.610;7.230;2022-08-19T09:42:19;16.33;;;10.70;;
19673;SDS011;9986;50.610;7.230;2022-08-19T09:45:03;14.07;;;11.20;;
19673;SDS011;9986;50.610;7.230;2022-08-19T09:47:42;13.30;;;11.20;;
19673;SDS011;9986;50.610;7.230;2022-08-19T09:50:21;11.90;;;10.70;;
19673;SDS011;9986;50.610;7.230;2022-08-19T09:53:05;14.20;;;12.30;;
19673;SDS011;9986;50.610;7.230;2022-08-19T09:55:46;12.47;;;11.10;;
19673;SDS011;9986;50.610;7.230;2022-08-19T09:58:23;15.95;;;14.25;;
19673;SDS011;9986;50.610;7.230;2022-08-19T10:01:01;12.43;;;10.87;;
19673;SDS011;9986;50.610;7.230;2022-08-19T10:03:40;14.73;;;12.68;;
19673;SDS011;9986;50.610;7.230;2022-08-19T10:06:17;14.57;;;12.77;;
19673;SDS011;9986;50.610;7.230;2022-08-19T10:08:55;14.38;;;12.88;;
19673;SDS011;9986;50.610;7.230;2022-08-19T10:11:33;15.20;;;12.80;;
19673;SDS011;9986;50.610;7.230;2022-08-19T10:14:11;15.25;;;12.07;;
19673;SDS011;9986;50.610;7.230;2022-08-19T10:19:27;19.20;;;14.60;;
19673;SDS011;9986;50.610;7.230;2022-08-19T10:24:45;15.10;;;12.95;;
19673;SDS011;9986;50.610;7.230;2022-08-19T10:27:26;17.57;;;13.83;;
19673;SDS011;9986;50.610;7.230;2022-08-19T10:32:40;13.88;;;12.10;;
19673;SDS011;9986;50.610;7.230;2022-08-19T10:35:24;17.02;;;14.93;;
19673;SDS011;9986;50.610;7.230;2022-08-19T10:38:02;17.65;;;15.70;;
19673;SDS011;9986;50.610;7.230;2022-08-19T10:40:42;17.87;;;13.80;;
19673;SDS011;9986;50.610;7.230;2022-08-19T10:43:20;17.90;;;15.17;;
19673;SDS011;9986;50.610;7.230;2022-08-19T10:45:57;19.33;;;16.10;;
19673;SDS011;9986;50.610;7.230;2022-08-19T10:51:11;17.00;;;14.90;;
19673;SDS011;9986;50.610;7.230;2022-08-19T10:53:49;13.58;;;12.28;;
19673;SDS011;9986;50.610;7.230;2022-08-19T10:59:09;16.67;;;14.95;;
19673;SDS011;9986;50.610;7.230;2022-08-19T11:01:47;17.42;;;13.55;;
19673;SDS011;9986;50.610;7.230;2022-08-19T11:04:25;16.17;;;14.45;;
19673;SDS011;9986;50.610;7.230;2022-08-19T11:12:24;12.43;;;11.28;;
19673;SDS011;9986;50.610;7.230;2022-08-19T11:15:02;12.33;;;11.08;;
19673;SDS011;9986;50.610;7.230;2022-08-19T11:20:11;13.60;;;12.28;;
19673;SDS011;9986;50.610;7.230;2022-08-19T11:25:32;12.07;;;10.95;;
19673;SDS011;9986;50.610;7.230;2022-08-19T11:28:09;16.20;;;14.50;;
19673;SDS011;9986;50.610;7.230;2022-08-19T11:35:56;15.40;;;13.10;;
19673;SDS011;9986;50.610;7.230;2022-08-19T11:38:34;16.37;;;13.50;;
19673;SDS011;9986;50.610;7.230;2022-08-19T11:43:42;15.38;;;12.68;;
19673;SDS011;9986;50.610;7.230;2022-08-19T11:46:19;14.50;;;12.95;;
19673;SDS011;9986;50.610;7.230;2022-08-19T11:48:58;14.23;;;11.03;;
19673;SDS011;9986;50.610;7.230;2022-08-19T11:54:07;13.70;;;11.30;;
19673;SDS011;9986;50.610;7.230;2022-08-19T11:56:45;10.05;;;9.05;;
19673;SDS011;9986;50.610;7.230;2022-08-19T11:59:23;11.20;;;7.03;;
19673;SDS011;9986;50.610;7.230;2022-08-19T12:02:01;8.08;;;7.37;;
19673;SDS011;9986;50.610;7.230;2022-08-19T12:07:15;6.78;;;6.17;;
19673;SDS011;9986;50.610;7.230;2022-08-19T12:09:53;9.20;;;7.40;;
19673;SDS011;9986;50.610;7.230;2022-08-19T12:12:37;8.23;;;7.00;;
19673;SDS011;9986;50.610;7.230;2022-08-19T12:15:15;7.53;;;6.78;;
19673;SDS011;9986;50.610;7.230;2022-08-19T12:17:53;7.55;;;6.22;;
19673;SDS011;9986;50.610;7.230;2022-08-19T12:23:02;5.90;;;5.40;;
19673;SDS011;9986;50.610;7.230;2022-08-19T12:25:44;6.62;;;5.92;;
19673;SDS011;9986;50.610;7.230;2022-08-19T12:28:23;6.28;;;5.62;;
19673;SDS011;9986;50.610;7.230;2022-08-19T12:31:04;10.45;;;7.28;;
19673;SDS011;9986;50.610;7.230;2022-08-19T12:33:43;7.53;;;6.92;;
19673;SDS011;9986;50.610;7.230;2022-08-19T12:36:24;7.62;;;6.92;;
19673;SDS011;9986;50.610;7.230;2022-08-19T12:39:02;7.53;;;6.83;;
19673;SDS011;9986;50.610;7.230;2022-08-19T12:41:45;7.65;;;6.75;;
19673;SDS011;9986;50.610;7.230;2022-08-19T12:44:23;10.93;;;7.45;;
19673;SDS011;9986;50.610;7.230;2022-08-19T12:47:01;8.93;;;8.08;;
19673;SDS011;9986;50.610;7.230;2022-08-19T12:49:39;8.90;;;8.10;;
19673;SDS011;9986;50.610;7.230;2022-08-19T12:52:17;8.25;;;7.45;;
19673;SDS011;9986;50.610;7.230;2022-08-19T12:54:56;9.90;;;7.87;;
19673;SDS011;9986;50.610;7.230;2022-08-19T12:57:34;9.05;;;8.25;;
19673;SDS011;9986;50.610;7.230;2022-08-19T13:00:13;8.35;;;7.55;;
19673;SDS011;9986;50.610;7.230;2022-08-19T13:05:26;9.10;;;8.20;;
19673;SDS011;9986;50.610;7.230;2022-08-19T13:08:04;9.03;;;8.13;;
19673;SDS011;9986;50.610;7.230;2022-08-19T13:10:41;8.95;;;8.10;;
19673;SDS011;9986;50.610;7.230;2022-08-19T13:13:25;10.45;;;8.20;;
19673;SDS011;9986;50.610;7.230;2022-08-19T13:16:03;8.30;;;7.60;;
19673;SDS011;9986;50.610;7.230;2022-08-19T13:18:41;9.73;;;8.23;;
19673;SDS011;9986;50.610;7.230;2022-08-19T13:21:20;9.40;;;8.60;;
19673;SDS011;9986;50.610;7.230;2022-08-19T13:23:58;10.75;;;9.75;;
19673;SDS011;9986;50.610;7.230;2022-08-19T13:26:37;9.55;;;8.60;;
19673;SDS011;9986;50.610;7.230;2022-08-19T13:29:21;10.13;;;9.25;;
19673;SDS011;9986;50.610;7.230;2022-08-19T13:34:50;10.68;;;9.68;;
19673;SDS011;9986;50.610;7.230;2022-08-19T13:37:22;11.22;;;10.13;;
19673;SDS011;9986;50.610;7.230;2022-08-19T13:40:00;11.60;;;10.40;;
19673;SDS011;9986;50.610;7.230;2022-08-19T13:45:08;10.85;;;9.90;;
19673;SDS011;9986;50.610;7.230;2022-08-19T13:47:48;10.55;;;9.55;;
19673;SDS011;9986;50.610;7.230;2022-08-19T13:50:23;10.48;;;9.03;;
19673;SDS011;9986;50.610;7.230;2022-08-19T13:53:07;10.45;;;9.55;;
19673;SDS011;9986;50.610;7.230;2022-08-19T13:55:45;10.58;;;9.20;;
19673;SDS011;9986;50.610;7.230;2022-08-19T13:58:23;10.58;;;9.48;;
19673;SDS011;9986;50.610;7.230;2022-08-19T14:01:01;9.58;;;8.10;;
19673;SDS011;9986;50.610;7.230;2022-08-19T14:03:38;13.75;;;8.38;;
19673;SDS011;9986;50.610;7.230;2022-08-19T14:08:46;8.75;;;7.87;;
19673;SDS011;9986;50.610;7.230;2022-08-19T14:11:23;8.65;;;7.90;;
19673;SDS011;9986;50.610;7.230;2022-08-19T14:14:07;8.70;;;7.80;;
19673;SDS011;9986;50.610;7.230;2022-08-19T14:19:14;8.65;;;7.83;;
19673;SDS011;9986;50.610;7.230;2022-08-19T14:21:52;8.80;;;8.00;;
19673;SDS011;9986;50.610;7.230;2022-08-19T14:24:32;8.80;;;7.15;;
19673;SDS011;9986;50.610;7.230;2022-08-19T14:27:13;9.60;;;8.40;;
19673;SDS011;9986;50.610;7.230;2022-08-19T14:29:56;9.90;;;7.17;;
19673;SDS011;9986;50.610;7.230;2022-08-19T14:32:34;7.62;;;6.37;;
19673;SDS011;9986;50.610;7.230;2022-08-19T14:35:13;8.63;;;7.67;;
19673;SDS011;9986;50.610;7.230;2022-08-19T14:37:53;6.60;;;6.08;;
19673;SDS011;9986;50.610;7.230;2022-08-19T14:40:37;7.17;;;6.50;;
19673;SDS011;9986;50.610;7.230;2022-08-19T14:48:24;10.40;;;7.55;;
19673;SDS011;9986;50.610;7.230;2022-08-19T14:51:01;8.65;;;7.28;;
19673;SDS011;9986;50.610;7.230;2022-08-19T14:53:39;9.78;;;7.58;;
19673;SDS011;9986;50.610;7.230;2022-08-19T14:56:21;7.78;;;7.08;;
19673;SDS011;9986;50.610;7.230;2022-08-19T14:58:58;8.55;;;7.22;;
19673;SDS011;9986;50.610;7.230;2022-08-19T15:04:05;7.67;;;6.97;;
19673;SDS011;9986;50.610;7.230;2022-08-19T15:06:45;9.08;;;7.30;;
19673;SDS011;9986;50.610;7.230;2022-08-19T15:09:17;9.70;;;6.95;;
19673;SDS011;9986;50.610;7.230;2022-08-19T15:11:57;7.50;;;6.80;;
19673;SDS011;9986;50.610;7.230;2022-08-19T15:14:36;11.03;;;6.92;;
19673;SDS011;9986;50.610;7.230;2022-08-19T15:17:17;8.08;;;6.72;;
19673;SDS011;9986;50.610;7.230;2022-08-19T15:22:24;7.00;;;6.30;;
19673;SDS011;9986;50.610;7.230;2022-08-19T15:25:08;7.80;;;6.92;;
19673;SDS011;9986;50.610;7.230;2022-08-19T15:30:25;9.05;;;7.22;;
19673;SDS011;9986;50.610;7.230;2022-08-19T15:33:03;7.47;;;6.70;;
19673;SDS011;9986;50.610;7.230;2022-08-19T15:35:45;7.55;;;6.83;;
19673;SDS011;9986;50.610;7.230;2022-08-19T15:38:23;8.53;;;7.67;;
19673;SDS011;9986;50.610;7.230;2022-08-19T15:41:01;11.18;;;7.40;;
19673;SDS011;9986;50.610;7.230;2022-08-19T15:43:41;7.80;;;6.87;;
19673;SDS011;9986;50.610;7.230;2022-08-19T15:48:57;8.25;;;7.45;;
19673;SDS011;9986;50.610;7.230;2022-08-19T15:51:35;7.05;;;6.33;;
19673;SDS011;9986;50.610;7.230;2022-08-19T15:54:13;8.93;;;6.65;;
19673;SDS011;9986;50.610;7.230;2022-08-19T15:56:51;6.17;;;5.62;;
19673;SDS011;9986;50.610;7.230;2022-08-19T16:02:19;8.55;;;4.78;;
19673;SDS011;9986;50.610;7.230;2022-08-19T16:04:57;8.05;;;4.75;;
19673;SDS011;9986;50.610;7.230;2022-08-19T16:07:44;4.60;;;3.90;;
19673;SDS011;9986;50.610;7.230;2022-08-19T16:10:22;4.03;;;3.72;;
19673;SDS011;9986;50.610;7.230;2022-08-19T16:13:00;4.53;;;3.58;;
19673;SDS011;9986;50.610;7.230;2022-08-19T16:18:08;5.87;;;4.97;;
19673;SDS011;9986;50.610;7.230;2022-08-19T16:20:46;3.05;;;2.85;;
19673;SDS011;9986;50.610;7.230;2022-08-19T16:23:24;4.03;;;2.70;;
19673;SDS011;9986;50.610;7.230;2022-08-19T16:26:01;3.05;;;2.80;;
19673;SDS011;9986;50.610;7.230;2022-08-19T16:28:39;3.67;;;2.72;;
19673;SDS011;9986;50.610;7.230;2022-08-19T16:31:19;3.67;;;2.70;;
19673;SDS011;9986;50.610;7.230;2022-08-19T16:33:57;2.83;;;2.42;;
19673;SDS011;9986;50.610;7.230;2022-08-19T16:39:04;4.42;;;2.30;;
19673;SDS011;9986;50.610;7.230;2022-08-19T16:41:43;5.00;;;2.40;;
19673;SDS011;9986;50.610;7.230;2022-08-19T16:47:03;2.47;;;2.10;;
19673;SDS011;9986;50.610;7.230;2022-08-19T16:52:13;2.83;;;2.02;;
19673;SDS011;9986;50.610;7.230;2022-08-19T16:57:28;5.35;;;2.62;;
19673;SDS011;9986;50.610;7.230;2022-08-19T17:05:28;2.60;;;2.40;;
19673;SDS011;9986;50.610;7.230;2022-08-19T17:10:35;3.58;;;2.10;;
19673;SDS011;9986;50.610;7.230;2022-08-19T17:13:15;3.20;;;2.60;;
19673;SDS011;9986;50.610;7.230;2022-08-19T17:18:29;3.08;;;2.77;;
19673;SDS011;9986;50.610;7.230;2022-08-19T17:26:20;2.12;;;1.98;;
19673;SDS011;9986;50.610;7.230;2022-08-19T17:28:58;2.08;;;1.87;;
19673;SDS011;9986;50.610;7.230;2022-08-19T17:31:36;1.98;;;1.70;;
19673;SDS011;9986;50.610;7.230;2022-08-19T17:34:14;2.80;;;2.20;;
19673;SDS011;9986;50.610;7.230;2022-08-19T17:36:51;2.90;;;2.33;;
19673;SDS011;9986;50.610;7.230;2022-08-19T17:39:29;2.77;;;2.08;;
19673;SDS011;9986;50.610;7.230;2022-08-19T17:42:07;3.25;;;2.00;;
19673;SDS011;9986;50.610;7.230;2022-08-19T17:47:27;5.08;;;1.80;;
19673;SDS011;9986;50.610;7.230;2022-08-19T17:52:37;3.10;;;1.82;;
19673;SDS011;9986;50.610;7.230;2022-08-19T17:55:17;1.60;;;1.50;;
19673;SDS011;9986;50.610;7.230;2022-08-19T18:00:32;1.92;;;1.60;;
19673;SDS011;9986;50.610;7.230;2022-08-19T18:05:42;4.75;;;2.12;;
19673;SDS011;9986;50.610;7.230;2022-08-19T18:10:49;2.17;;;1.98;;
19673;SDS011;9986;50.610;7.230;2022-08-19T18:13:26;3.22;;;2.15;;
19673;SDS011;9986;50.610;7.230;2022-08-19T18:15:57;1.80;;;1.70;;
19673;SDS011;9986;50.610;7.230;2022-08-19T18:21:29;4.75;;;2.25;;
19673;SDS011;9986;50.610;7.230;2022-08-19T18:26:43;1.75;;;1.65;;
19673;SDS011;9986;50.610;7.230;2022-08-19T18:29:21;4.22;;;1.77;;
19673;SDS011;9986;50.610;7.230;2022-08-19T18:34:41;1.95;;;1.70;;
19673;SDS011;9986;50.610;7.230;2022-08-19T18:39:58;2.08;;;1.77;;
19673;SDS011;9986;50.610;7.230;2022-08-19T18:42:35;1.90;;;1.80;;
19673;SDS011;9986;50.610;7.230;2022-08-19T18:45:17;3.98;;;2.30;;
19673;SDS011;9986;50.610;7.230;2022-08-19T18:50:48;3.02;;;2.22;;
19673;SDS011;9986;50.610;7.230;2022-08-19T18:53:28;2.22;;;2.02;;
19673;SDS011;9986;50.610;7.230;2022-08-19T18:56:06;2.00;;;1.87;;
19673;SDS011;9986;50.610;7.230;2022-08-19T19:01:19;1.77;;;1.67;;
19673;SDS011;9986;50.610;7.230;2022-08-19T19:06:32;3.42;;;2.22;;
19673;SDS011;9986;50.610;7.230;2022-08-19T19:11:45;13.95;;;10.85;;
19673;SDS011;9986;50.610;7.230;2022-08-19T19:14:24;3.12;;;2.15;;
19673;SDS011;9986;50.610;7.230;2022-08-19T19:17:04;2.10;;;2.00;;
19673;SDS011;9986;50.610;7.230;2022-08-19T19:19:41;3.08;;;2.30;;
19673;SDS011;9986;50.610;7.230;2022-08-19T19:27:31;2.50;;;1.90;;
19673;SDS011;9986;50.610;7.230;2022-08-19T19:32:38;2.40;;;2.20;;
19673;SDS011;9986;50.610;7.230;2022-08-19T19:35:17;2.40;;;1.87;;
19673;SDS011;9986;50.610;7.230;2022-08-19T19:37:55;1.92;;;1.77;;
19673;SDS011;9986;50.610;7.230;2022-08-19T19:40:33;2.98;;;1.98;;
19673;SDS011;9986;50.610;7.230;2022-08-19T19:43:13;5.53;;;2.10;;
19673;SDS011;9986;50.610;7.230;2022-08-19T19:48:33;2.27;;;2.07;;
19673;SDS011;9986;50.610;7.230;2022-08-19T19:51:11;3.37;;;1.85;;
19673;SDS011;9986;50.610;7.230;2022-08-19T19:53:49;2.33;;;2.12;;
19673;SDS011;9986;50.610;7.230;2022-08-19T19:56:29;4.70;;;1.80;;
19673;SDS011;9986;50.610;7.230;2022-08-19T19:59:13;1.93;;;1.70;;
19673;SDS011;9986;50.610;7.230;2022-08-19T20:01:51;1.70;;;1.60;;
19673;SDS011;9986;50.610;7.230;2022-08-19T20:04:34;1.95;;;1.85;;
19673;SDS011;9986;50.610;7.230;2022-08-19T20:09:53;2.90;;;2.08;;
19673;SDS011;9986;50.610;7.230;2022-08-19T20:12:32;2.00;;;1.90;;
19673;SDS011;9986;50.610;7.230;2022-08-19T20:15:10;1.90;;;1.70;;
19673;SDS011;9986;50.610;7.230;2022-08-19T20:17:47;4.20;;;2.25;;
19673;SDS011;9986;50.610;7.230;2022-08-19T20:20:25;2.45;;;1.98;;
19673;SDS011;9986;50.610;7.230;2022-08-19T20:30:47;2.05;;;1.80;;
19673;SDS011;9986;50.610;7.230;2022-08-19T20:33:25;3.67;;;1.93;;
19673;SDS011;9986;50.610;7.230;2022-08-19T20:38:33;2.45;;;2.00;;
19673;SDS011;9986;50.610;7.230;2022-08-19T20:41:11;2.17;;;1.90;;
19673;SDS011;9986;50.610;7.230;2022-08-19T20:46:18;3.08;;;2.10;;
19673;SDS011;9986;50.610;7.230;2022-08-19T20:48:55;3.13;;;2.20;;